createdAt,value
2023-05-12T00:01:58.511Z,21.35
2023-05-12T00:04:44.477Z,21.29
2023-05-12T00:07:30.930Z,21.31
2023-05-12T00:10:17.377Z,21.37
2023-05-12T00:13:04.972Z,21.25
2023-05-12T00:15:51.543Z,21.42
2023-05-12T00:18:37.403Z,21.31
2023-05-12T00:21:23.222Z,21.42
2023-05-12T00:24:09.611Z,21.50
2023-05-12T00:26:55.485Z,21.28
2023-05-12T00:29:42.644Z,21.47
2023-05-12T00:32:28.636Z,21.59
2023-05-12T00:35:15.958Z,21.59
2023-05-12T00:38:01.668Z,21.67
2023-05-12T00:40:47.559Z,21.61
2023-05-12T00:43:34.156Z,21.53
2023-05-12T00:46:21.915Z,21.67
2023-05-12T00:49:08.286Z,21.69
2023-05-12T00:51:55.283Z,21.77
2023-05-12T00:54:42.974Z,21.82
2023-05-12T00:57:29.851Z,21.82
2023-05-12T01:00:16.594Z,21.89
2023-05-12T01:03:06.424Z,21.90
2023-05-12T01:05:57.821Z,21.93
2023-05-12T01:08:44.248Z,21.91
2023-05-12T01:11:30.740Z,21.92
2023-05-12T01:14:16.616Z,21.91
2023-05-12T01:17:04.507Z,22.05
2023-05-12T01:19:54.871Z,22.00
2023-05-12T01:22:41.595Z,21.90
2023-05-12T01:25:32.329Z,21.77
2023-05-12T01:28:22.343Z,21.86
2023-05-12T01:31:10.220Z,21.80
2023-05-12T01:33:58.202Z,21.74
2023-05-12T01:36:44.667Z,21.86
2023-05-12T01:39:30.875Z,21.88
2023-05-12T01:42:17.323Z,21.83
2023-05-12T01:45:05.112Z,21.89
2023-05-12T01:47:51.523Z,21.85
2023-05-12T01:50:37.838Z,21.89
2023-05-12T01:53:27.704Z,21.89
2023-05-12T01:56:13.516Z,21.90
2023-05-12T01:58:59.743Z,21.85
2023-05-12T02:01:47.004Z,21.86
2023-05-12T02:04:38.267Z,21.93
2023-05-12T02:07:24.022Z,21.90
2023-05-12T02:10:10.628Z,21.85
2023-05-12T02:12:56.784Z,21.82
2023-05-12T02:15:43.338Z,21.81
2023-05-12T02:18:31.150Z,21.81
2023-05-12T02:21:17.569Z,21.89
2023-05-12T02:24:03.395Z,21.96
2023-05-12T02:26:50.744Z,22.00
2023-05-12T02:29:37.941Z,21.75
2023-05-12T02:32:28.003Z,21.73
2023-05-12T02:35:15.689Z,21.71
2023-05-12T02:38:01.772Z,21.74
2023-05-12T02:40:47.965Z,21.69
2023-05-12T02:43:34.503Z,21.82
2023-05-12T02:46:20.546Z,21.77
2023-05-12T02:49:06.820Z,21.80
2023-05-12T02:51:55.076Z,21.68
2023-05-12T02:54:41.206Z,21.77
2023-05-12T02:57:32.833Z,21.72
2023-05-12T03:00:19.424Z,21.64
2023-05-12T03:03:06.072Z,21.67
2023-05-12T03:05:53.365Z,21.68
2023-05-12T03:08:40.803Z,21.59
2023-05-12T03:11:27.354Z,21.60
2023-05-12T03:14:13.252Z,21.64
2023-05-12T03:17:00.065Z,21.70
2023-05-12T03:19:46.248Z,21.65
2023-05-12T03:22:32.453Z,21.56
2023-05-12T03:25:19.959Z,21.52
2023-05-12T03:28:06.296Z,21.60
2023-05-12T03:30:52.215Z,21.55
2023-05-12T03:33:38.068Z,21.52
2023-05-12T03:36:24.150Z,21.45
2023-05-12T03:39:10.523Z,21.42
2023-05-12T03:41:57.657Z,21.38
2023-05-12T03:44:43.832Z,21.46
2023-05-12T03:47:30.335Z,21.43
2023-05-12T03:50:16.683Z,21.47
2023-05-12T03:53:03.455Z,21.42
2023-05-12T03:55:49.313Z,21.51
2023-05-12T03:58:36.493Z,21.50
2023-05-12T04:01:22.598Z,21.46
2023-05-12T04:04:08.696Z,21.59
2023-05-12T04:06:56.208Z,21.50
2023-05-12T04:09:43.894Z,21.48
2023-05-12T04:12:29.793Z,21.55
2023-05-12T04:15:17.575Z,21.53
2023-05-12T04:18:03.310Z,21.59
2023-05-12T04:20:49.204Z,21.53
2023-05-12T04:23:35.083Z,21.58
2023-05-12T04:26:21.993Z,21.68
2023-05-12T04:29:08.361Z,21.55
2023-05-12T04:31:57.164Z,21.76
2023-05-12T04:34:43.556Z,21.83
2023-05-12T04:37:29.943Z,21.70
2023-05-12T04:40:16.652Z,21.75
2023-05-12T04:43:03.040Z,21.28
2023-05-12T04:45:51.432Z,21.60
2023-05-12T04:48:41.859Z,21.68
2023-05-12T04:51:27.968Z,21.58
2023-05-12T04:54:13.846Z,21.61
2023-05-12T04:57:00.391Z,21.71
2023-05-12T04:59:46.187Z,21.90
2023-05-12T05:02:33.075Z,21.84
2023-05-12T05:05:21.235Z,22.07
2023-05-12T05:08:07.679Z,22.41
2023-05-12T05:10:54.304Z,21.99
2023-05-12T05:13:40.799Z,22.03
2023-05-12T05:16:28.221Z,22.01
2023-05-12T05:19:24.777Z,21.98
2023-05-12T05:22:22.968Z,22.21
2023-05-12T05:25:10.206Z,22.17
2023-05-12T05:27:56.608Z,22.29
2023-05-12T05:30:42.419Z,22.33
2023-05-12T05:33:29.282Z,22.31
2023-05-12T05:36:16.373Z,22.44
2023-05-12T05:39:04.746Z,22.39
2023-05-12T05:41:50.588Z,22.41
2023-05-12T05:44:36.531Z,22.42
2023-05-12T05:47:24.602Z,22.18
2023-05-12T05:50:11.395Z,22.15
2023-05-12T05:53:00.250Z,22.01
2023-05-12T05:55:48.719Z,22.05
2023-05-12T05:58:35.310Z,22.30
2023-05-12T06:01:23.008Z,22.34
2023-05-12T06:04:08.966Z,22.23
2023-05-12T06:06:55.261Z,22.38
2023-05-12T06:09:41.238Z,22.50
2023-05-12T06:12:28.274Z,22.56
2023-05-12T06:15:14.404Z,22.59
2023-05-12T06:18:00.589Z,22.71
2023-05-12T06:20:46.315Z,22.75
2023-05-12T06:23:32.415Z,22.89
2023-05-12T06:26:18.599Z,22.82
2023-05-12T06:29:07.538Z,22.98
2023-05-12T06:31:53.713Z,22.70
2023-05-12T06:34:39.809Z,22.49
2023-05-12T06:37:25.980Z,22.38
2023-05-12T06:40:12.394Z,23.08
2023-05-12T06:42:58.685Z,23.20
2023-05-12T06:45:47.364Z,22.96
2023-05-12T06:48:33.982Z,23.21
2023-05-12T06:51:20.276Z,23.50
2023-05-12T06:54:06.856Z,23.62
2023-05-12T06:56:53.096Z,23.72
2023-05-12T06:59:39.135Z,23.68
2023-05-12T07:02:26.454Z,23.88
2023-05-12T07:05:12.921Z,23.77
2023-05-12T07:07:59.347Z,23.90
2023-05-12T07:10:45.248Z,23.81
2023-05-12T07:13:31.299Z,24.12
2023-05-12T07:16:18.150Z,24.17
2023-05-12T07:19:08.780Z,24.22
2023-05-12T07:21:54.876Z,24.32
2023-05-12T07:24:41.575Z,24.23
2023-05-12T07:27:27.691Z,24.30
2023-05-12T07:30:14.318Z,24.59
2023-05-12T07:33:02.084Z,24.65
2023-05-12T07:35:49.568Z,24.64
2023-05-12T07:38:35.650Z,24.81
2023-05-12T07:41:21.748Z,24.96
2023-05-12T07:44:07.706Z,25.10
2023-05-12T07:46:54.255Z,25.07
2023-05-12T07:49:40.495Z,25.32
2023-05-12T07:52:27.921Z,25.44
2023-05-12T07:55:14.061Z,24.67
2023-05-12T07:57:59.975Z,24.87
2023-05-12T08:00:46.071Z,25.27
2023-05-12T08:03:32.053Z,24.93
2023-05-12T08:06:18.670Z,25.61
2023-05-12T08:09:06.396Z,25.85
2023-05-12T08:11:52.832Z,25.53
2023-05-12T08:14:38.992Z,24.65
2023-05-12T08:17:25.971Z,25.64
2023-05-12T08:20:13.902Z,25.81
2023-05-12T08:23:00.181Z,25.79
2023-05-12T08:25:48.414Z,26.38
2023-05-12T08:28:34.601Z,26.55
2023-05-12T08:31:20.882Z,25.37
2023-05-12T08:34:10.897Z,25.86
2023-05-12T08:36:57.626Z,27.09
2023-05-12T08:39:43.821Z,26.86
2023-05-12T08:42:38.135Z,27.25
2023-05-12T08:45:24.896Z,26.31
2023-05-12T08:48:11.801Z,26.34
2023-05-12T08:50:58.865Z,26.80
2023-05-12T08:53:45.845Z,27.31
2023-05-12T08:59:21.781Z,27.13
2023-05-12T09:02:09.049Z,27.82
2023-05-12T09:04:55.520Z,27.57
2023-05-12T09:07:44.662Z,28.00
2023-05-12T09:10:35.308Z,27.86
2023-05-12T09:13:30.876Z,28.31
2023-05-12T09:16:19.976Z,29.18
2023-05-12T09:19:07.429Z,28.77
2023-05-12T09:21:53.813Z,28.92
2023-05-12T09:24:40.977Z,29.50
2023-05-12T09:27:27.742Z,29.58
2023-05-12T09:30:14.500Z,30.20
2023-05-12T09:33:09.158Z,30.17
2023-05-12T09:35:55.041Z,30.50
2023-05-12T09:38:41.038Z,30.24
2023-05-12T09:41:27.269Z,31.07
2023-05-12T09:44:16.299Z,30.36
2023-05-12T09:47:06.985Z,31.90
2023-05-12T09:49:55.079Z,31.26
2023-05-12T09:52:41.605Z,31.28
2023-05-12T09:55:27.874Z,32.50
2023-05-12T09:58:16.286Z,32.29
2023-05-12T10:03:54.484Z,32.45
2023-05-12T10:06:43.236Z,32.22
2023-05-12T10:09:33.890Z,32.83
2023-05-12T10:12:20.080Z,32.46
2023-05-12T10:15:07.630Z,33.16
2023-05-12T10:17:55.261Z,32.72
2023-05-12T10:20:41.926Z,33.10
2023-05-12T10:23:29.180Z,33.17
2023-05-12T10:26:15.338Z,33.22
2023-05-12T10:29:01.518Z,33.06
2023-05-12T10:31:47.861Z,33.65
2023-05-12T10:34:35.020Z,32.59
2023-05-12T10:37:23.591Z,32.78
2023-05-12T10:40:11.681Z,32.77
2023-05-12T10:42:59.941Z,33.53
2023-05-12T10:45:46.231Z,34.64
2023-05-12T10:48:32.545Z,34.95
2023-05-12T10:51:21.965Z,34.89
2023-05-12T10:54:09.191Z,34.46
2023-05-12T10:57:00.451Z,34.83
2023-05-12T10:59:50.688Z,35.07
2023-05-12T11:02:38.353Z,33.98
2023-05-12T11:05:34.735Z,33.49
2023-05-12T11:08:21.662Z,34.49
2023-05-12T11:11:08.809Z,33.93
2023-05-12T11:13:56.532Z,32.70
2023-05-12T11:16:44.203Z,33.31
2023-05-12T11:19:30.662Z,33.65
2023-05-12T11:22:18.455Z,33.18
2023-05-12T11:25:11.341Z,33.47
2023-05-12T11:27:58.217Z,34.34
2023-05-12T11:30:54.001Z,35.26
2023-05-12T11:33:40.863Z,34.35
2023-05-12T11:36:26.703Z,33.81
2023-05-12T11:39:17.489Z,33.18
2023-05-12T11:42:12.864Z,33.93
2023-05-12T11:45:00.251Z,34.62
2023-05-12T11:47:47.771Z,34.28
2023-05-12T11:50:34.056Z,33.93
2023-05-12T11:53:20.130Z,33.71
2023-05-12T11:56:06.474Z,33.39
2023-05-12T11:58:53.998Z,34.17
2023-05-12T12:01:46.187Z,35.01
2023-05-12T12:04:40.605Z,34.65
2023-05-12T12:07:31.057Z,34.79
2023-05-12T12:10:18.951Z,33.57
2023-05-12T12:13:05.214Z,34.69
2023-05-12T12:15:51.882Z,34.62
2023-05-12T12:18:37.848Z,35.16
2023-05-12T12:21:26.169Z,35.53
2023-05-12T12:24:12.656Z,35.19
2023-05-12T12:26:58.731Z,33.59
2023-05-12T12:29:44.564Z,34.22
2023-05-12T12:32:31.187Z,34.55
2023-05-12T12:35:17.187Z,33.91
2023-05-12T12:38:04.615Z,33.39
2023-05-12T12:40:51.406Z,32.72
2023-05-12T12:43:37.731Z,32.28
2023-05-12T12:46:23.839Z,32.91
2023-05-12T12:49:10.246Z,32.65
2023-05-12T12:51:56.681Z,31.74
2023-05-12T12:54:43.850Z,32.05
2023-05-12T12:57:29.746Z,31.89
2023-05-12T13:00:17.277Z,32.30
2023-05-12T13:03:03.438Z,32.25
2023-05-12T13:05:49.673Z,31.62
2023-05-12T13:08:35.685Z,31.85
2023-05-12T13:11:22.890Z,32.08
2023-05-12T13:14:08.923Z,32.55
2023-05-12T13:16:54.760Z,32.10
2023-05-12T13:19:40.587Z,32.03
2023-05-12T13:22:27.440Z,32.60
2023-05-12T13:25:13.230Z,31.71
2023-05-12T13:28:00.407Z,31.62
2023-05-12T13:30:46.549Z,30.96
2023-05-12T13:33:32.594Z,31.22
2023-05-12T13:36:18.513Z,32.07
2023-05-12T13:39:04.534Z,32.03
2023-05-12T13:41:50.754Z,32.26
2023-05-12T13:44:38.578Z,32.19
2023-05-12T13:47:24.541Z,31.54
2023-05-12T13:50:10.700Z,31.31
2023-05-12T13:52:56.914Z,31.40
2023-05-12T13:55:44.460Z,31.50
2023-05-12T13:58:30.521Z,31.79
2023-05-12T14:01:17.783Z,31.37
2023-05-12T14:04:03.888Z,31.62
2023-05-12T14:06:50.265Z,30.72
2023-05-12T14:09:36.576Z,31.04
2023-05-12T14:12:22.375Z,30.77
2023-05-12T14:15:29.151Z,30.20
2023-05-12T14:18:17.696Z,30.16
2023-05-12T14:21:05.642Z,30.29
2023-05-12T14:23:52.003Z,30.25
2023-05-12T14:26:37.909Z,30.10
2023-05-12T14:29:23.741Z,30.48
2023-05-12T14:32:09.701Z,30.01
2023-05-12T14:34:57.566Z,30.03
2023-05-12T14:37:43.817Z,29.78
2023-05-12T14:40:29.752Z,30.29
2023-05-12T14:43:15.611Z,30.18
2023-05-12T14:46:02.205Z,29.60
2023-05-12T14:48:48.780Z,29.84
2023-05-12T14:51:36.476Z,29.93
2023-05-12T14:54:25.561Z,29.71
2023-05-12T14:57:13.412Z,29.80
2023-05-12T14:59:59.308Z,29.19
2023-05-12T15:02:45.995Z,29.56
2023-05-12T15:05:52.920Z,29.07
2023-05-12T15:08:40.308Z,29.76
2023-05-12T15:11:26.794Z,29.17
2023-05-12T15:14:12.934Z,29.48
2023-05-12T15:16:59.422Z,29.81
2023-05-12T15:19:46.218Z,29.33
2023-05-12T15:22:32.386Z,29.44
2023-05-12T15:25:19.862Z,29.22
2023-05-12T15:28:06.004Z,29.00
2023-05-12T15:30:55.924Z,29.07
2023-05-12T15:33:42.308Z,29.09
2023-05-12T15:36:28.151Z,28.95
2023-05-12T15:39:14.042Z,29.03
2023-05-12T15:42:01.304Z,28.86
2023-05-12T15:44:48.017Z,29.16
2023-05-12T15:47:36.212Z,28.67
2023-05-12T15:50:22.994Z,28.71
2023-05-12T15:53:09.349Z,28.63
2023-05-12T15:56:00.324Z,28.43
2023-05-12T15:58:47.731Z,28.20
2023-05-12T16:01:33.778Z,29.17
2023-05-12T16:04:19.895Z,28.47
2023-05-12T16:07:06.293Z,28.46
2023-05-12T16:09:52.589Z,29.05
2023-05-12T16:12:38.710Z,28.75
2023-05-12T16:15:25.954Z,28.38
2023-05-12T16:18:12.043Z,28.98
2023-05-12T16:20:58.683Z,29.02
2023-05-12T16:23:44.716Z,29.14
2023-05-12T16:26:30.970Z,28.86
2023-05-12T16:29:17.334Z,28.76
2023-05-12T16:32:05.480Z,29.00
2023-05-12T16:34:51.731Z,29.21
2023-05-12T16:37:37.952Z,29.38
2023-05-12T16:40:24.176Z,29.16
2023-05-12T16:43:10.327Z,29.15
2023-05-12T16:46:00.985Z,28.72
2023-05-12T16:48:48.547Z,29.22
2023-05-12T16:51:35.536Z,28.98
2023-05-12T16:54:21.982Z,28.48
2023-05-12T16:57:08.093Z,28.37
2023-05-12T16:59:54.213Z,28.34
2023-05-12T17:02:40.063Z,28.55
2023-05-12T17:05:27.908Z,28.68
2023-05-12T17:08:14.064Z,28.78
2023-05-12T17:11:00.300Z,28.44
2023-05-12T17:13:46.582Z,28.40
2023-05-12T17:16:32.846Z,28.46
2023-05-12T17:19:19.218Z,28.29
2023-05-12T17:22:07.088Z,28.24
2023-05-12T17:24:52.883Z,28.07
2023-05-12T17:27:38.718Z,28.03
2023-05-12T17:30:25.002Z,28.00
2023-05-12T17:33:10.946Z,27.64
2023-05-12T17:36:11.600Z,27.63
2023-05-12T17:38:59.898Z,27.98
2023-05-12T17:41:45.889Z,27.81
2023-05-12T17:44:31.706Z,27.27
2023-05-12T17:47:17.826Z,27.41
2023-05-12T17:50:04.163Z,27.60
2023-05-12T17:52:50.424Z,27.24
2023-05-12T17:55:38.318Z,27.17
2023-05-12T17:58:24.430Z,27.39
2023-05-12T18:01:10.241Z,26.99
2023-05-12T18:03:56.146Z,26.71
2023-05-12T18:06:42.141Z,27.02
2023-05-12T18:09:29.187Z,27.06
2023-05-12T18:12:17.901Z,27.02
2023-05-12T18:15:04.421Z,26.33
2023-05-12T18:17:50.498Z,26.37
2023-05-12T18:20:36.484Z,26.52
2023-05-12T18:23:22.456Z,26.35
2023-05-12T18:26:08.460Z,26.33
2023-05-12T18:28:55.885Z,26.23
2023-05-12T18:31:43.990Z,26.10
2023-05-12T18:34:30.691Z,25.82
2023-05-12T18:37:17.719Z,26.09
2023-05-12T18:40:04.837Z,25.85
2023-05-12T18:42:51.750Z,25.90
2023-05-12T18:45:39.534Z,25.89
2023-05-12T18:48:25.522Z,25.83
2023-05-12T18:51:11.668Z,25.83
2023-05-12T18:53:58.008Z,25.69
2023-05-12T18:56:44.204Z,25.62
2023-05-12T18:59:30.113Z,25.48
2023-05-12T19:02:17.641Z,25.35
2023-05-12T19:05:03.610Z,25.25
2023-05-12T19:07:49.714Z,25.12
2023-05-12T19:10:37.887Z,24.96
2023-05-12T19:13:25.501Z,24.76
2023-05-12T19:16:11.865Z,24.54
2023-05-12T19:18:59.582Z,24.38
2023-05-12T19:21:45.638Z,24.45
2023-05-12T19:24:31.487Z,24.46
2023-05-12T19:27:17.422Z,24.23
2023-05-12T19:30:05.037Z,24.19
2023-05-12T19:32:51.323Z,23.99
2023-05-12T19:35:39.144Z,23.90
2023-05-12T19:38:25.309Z,23.88
2023-05-12T19:41:11.508Z,24.00
2023-05-12T19:43:57.775Z,24.06
2023-05-12T19:46:44.501Z,23.88
2023-05-12T19:49:30.682Z,23.85
2023-05-12T19:52:18.395Z,23.70
2023-05-12T19:55:05.002Z,23.56
2023-05-12T19:57:51.733Z,23.52
2023-05-12T20:00:39.313Z,23.45
2023-05-12T20:03:26.005Z,23.36
2023-05-12T20:06:12.261Z,23.31
2023-05-12T20:08:59.434Z,23.24
2023-05-12T20:11:45.559Z,23.02
2023-05-12T20:14:31.495Z,22.97
2023-05-12T20:17:17.594Z,22.96
2023-05-12T20:20:04.219Z,22.82
2023-05-12T20:22:50.030Z,22.60
2023-05-12T20:25:37.456Z,22.67
2023-05-12T20:28:23.950Z,22.59
2023-05-12T20:31:10.516Z,22.49
2023-05-12T20:33:57.150Z,22.35
2023-05-12T20:36:43.962Z,22.35
2023-05-12T20:39:29.857Z,22.37
2023-05-12T20:42:17.222Z,22.30
2023-05-12T20:45:03.154Z,22.28
2023-05-12T20:47:49.363Z,22.13
2023-05-12T20:50:35.332Z,22.08
2023-05-12T20:53:21.430Z,21.91
2023-05-12T20:56:08.682Z,21.98
2023-05-12T20:58:57.244Z,21.95
2023-05-12T21:01:43.053Z,21.92
2023-05-12T21:04:28.965Z,21.87
2023-05-12T21:07:14.916Z,21.81
2023-05-12T21:10:00.879Z,21.71
2023-05-12T21:12:47.165Z,21.62
2023-05-12T21:15:34.427Z,21.54
2023-05-12T21:18:20.544Z,21.47
2023-05-12T21:21:06.450Z,21.49
2023-05-12T21:23:52.439Z,21.35
2023-05-12T21:26:38.977Z,21.30
2023-05-12T21:29:25.249Z,21.23
2023-05-12T21:32:12.866Z,21.15
2023-05-12T21:34:59.139Z,21.18
2023-05-12T21:37:46.236Z,21.13
2023-05-12T21:40:32.365Z,21.15
2023-05-12T21:43:18.251Z,21.09
2023-05-12T21:46:04.729Z,21.06
2023-05-12T21:48:52.981Z,21.05
2023-05-12T21:51:39.170Z,20.98
2023-05-12T21:54:25.423Z,20.91
2023-05-12T21:57:11.484Z,20.81
2023-05-12T21:59:58.791Z,20.82
2023-05-12T22:02:44.816Z,20.76
2023-05-12T22:05:32.225Z,20.64
2023-05-12T22:08:18.476Z,20.67
2023-05-12T22:11:04.583Z,20.46
2023-05-12T22:13:50.705Z,20.69
2023-05-12T22:16:41.836Z,20.66
2023-05-12T22:19:28.815Z,20.56
2023-05-12T22:22:16.407Z,20.51
2023-05-12T22:25:03.612Z,20.50
2023-05-12T22:27:49.912Z,20.41
2023-05-12T22:30:36.128Z,20.40
2023-05-12T22:33:22.031Z,20.41
2023-05-12T22:36:09.004Z,20.43
2023-05-12T22:38:56.301Z,20.33
2023-05-12T22:41:42.380Z,20.33
2023-05-12T22:44:28.626Z,20.27
2023-05-12T22:47:14.743Z,20.28
2023-05-12T22:50:01.258Z,20.23
2023-05-12T22:52:47.593Z,20.21
2023-05-12T22:55:34.899Z,20.16
2023-05-12T22:58:21.072Z,20.14
2023-05-12T23:01:07.372Z,20.15
2023-05-12T23:03:53.867Z,20.14
2023-05-12T23:06:39.961Z,20.10
2023-05-12T23:09:26.047Z,20.08
2023-05-12T23:12:13.638Z,20.02
2023-05-12T23:14:59.903Z,19.81
2023-05-12T23:17:46.131Z,19.78
2023-05-12T23:20:32.010Z,19.75
2023-05-12T23:23:18.095Z,19.71
2023-05-12T23:26:04.188Z,19.74
2023-05-12T23:28:51.429Z,19.67
2023-05-12T23:31:37.555Z,19.56
2023-05-12T23:34:23.745Z,19.50
2023-05-12T23:37:09.561Z,19.48
2023-05-12T23:39:55.782Z,19.46
2023-05-12T23:42:41.809Z,19.41
2023-05-12T23:45:28.876Z,19.36
2023-05-12T23:48:14.877Z,19.31
2023-05-12T23:51:00.786Z,19.32
2023-05-12T23:53:46.672Z,19.36
2023-05-12T23:56:32.629Z,19.39
2023-05-12T23:59:18.430Z,19.36
